Red Thread — WDC9612 — position and weather

sailwx.info

Track history (hours):
 
Tides and Currents Weather Stations Pressure Air Temp Water Temp Dewpoint Dewpoint Depression Visibility Wind Speed Wind Dir Waves Ship Positions

Red Thread

More information available from US FCC via Universal Licensing System and Coast Guard Vessel Documentation Center.

Last reported at 2014-Jul-13 20:07 UTC. Time now 2014-Jul-25 15:58 UTC.
Position N 47°38' W 122°24'.
Warning: this ship's position is 11 days out of date.

Length 13 m.

Type: Sailing vessel. MMSI: 367104550.

Date/timePositionNaut miles runAvg speedWind from/ knotsBaromVisibWave heightAir tempDewpointWater temp
2014-Jul-13 20:07N 47°38' W 122°24'2 3.9
2014-Jul-13 19:33N 47°37' W 122°27'2 3.7
2014-Jul-13 18:57N 47°37' W 122°30'1 0.0
2014-Jul-12 22:52N 47°37' W 122°31'1 3.5
2014-Jul-12 22:33N 47°37' W 122°30'0 4.8
2014-Jul-12 22:32N 47°37' W 122°30'3 3.3
2014-Jul-12 21:33N 47°38' W 122°25'0 0.0
2014-Jul-11 03:40N 47°38' W 122°24'1 3.4
2014-Jul-11 03:26N 47°37' W 122°24'0 0.0
2014-Jul-11 03:26N 47°37' W 122°24'1 1.2
2014-Jul-11 02:24N 47°37' W 122°22'1 3.9
2014-Jul-11 02:16N 47°37' W 122°23'  
2014-Jul-07 03:14N 47°37' W 122°24'0 0.0
2014-Jul-07 03:13N 47°37' W 122°24'3 4.9
2014-Jul-07 02:33N 47°35' W 122°28'3 2.9
2014-Jul-07 01:32N 47°32' W 122°27'4 3.7
2014-Jul-07 00:33N 47°29' W 122°30'7 6.7
2014-Jul-06 23:32N 47°23' W 122°32'3 0.1
2014-Jul-05 20:10N 47°21' W 122°29'2 3.0
2014-Jul-05 19:33N 47°22' W 122°28'1 0.1
2014-Jul-05 02:33N 47°24' W 122°27'9 2.9
2014-Jul-04 23:23N 47°33' W 122°25'3 4.1
2014-Jul-04 22:40N 47°36' W 122°27'1 5.0
2014-Jul-04 22:33N 47°36' W 122°27'1 4.3
2014-Jul-04 22:25N 47°37' W 122°28'4 4.2
2014-Jul-04 21:33N 47°40' W 122°29'0 3.2
2014-Jul-04 21:30N 47°40' W 122°29'3 3.1
2014-Jul-04 20:33N 47°43' W 122°32'1 0.0
2014-Jul-03 22:26N 47°43' W 122°31'1 5.3
2014-Jul-03 22:12N 47°42' W 122°29'  
Track history (hours):
 
Tides and Currents Weather Stations Pressure Air Temp Water Temp Dewpoint Dewpoint Depression Visibility Wind Speed Wind Dir Waves Ship Positions

Red Thread

More information available from US FCC via Universal Licensing System and Coast Guard Vessel Documentation Center.

Last reported at 2014-Jul-13 20:07 UTC. Time now 2014-Jul-25 15:58 UTC.
Position N 47°38' W 122°24'.
Warning: this ship's position is 11 days out of date.

Length 13 m.

Type: Sailing vessel. MMSI: 367104550.

Date/timePositionNaut miles runAvg speedWind from/ knotsBaromVisibWave heightAir tempDewpointWater temp
2014-Jul-13 20:07N 47°38' W 122°24'2 3.9
2014-Jul-13 19:33N 47°37' W 122°27'2 3.7
2014-Jul-13 18:57N 47°37' W 122°30'1 0.0
2014-Jul-12 22:52N 47°37' W 122°31'1 3.5
2014-Jul-12 22:33N 47°37' W 122°30'0 4.8
2014-Jul-12 22:32N 47°37' W 122°30'3 3.3
2014-Jul-12 21:33N 47°38' W 122°25'0 0.0
2014-Jul-11 03:40N 47°38' W 122°24'1 3.4
2014-Jul-11 03:26N 47°37' W 122°24'0 0.0
2014-Jul-11 03:26N 47°37' W 122°24'1 1.2
2014-Jul-11 02:24N 47°37' W 122°22'1 3.9
2014-Jul-11 02:16N 47°37' W 122°23'  
2014-Jul-07 03:14N 47°37' W 122°24'0 0.0
2014-Jul-07 03:13N 47°37' W 122°24'3 4.9
2014-Jul-07 02:33N 47°35' W 122°28'3 2.9
2014-Jul-07 01:32N 47°32' W 122°27'4 3.7
2014-Jul-07 00:33N 47°29' W 122°30'7 6.7
2014-Jul-06 23:32N 47°23' W 122°32'3 0.1
2014-Jul-05 20:10N 47°21' W 122°29'2 3.0
2014-Jul-05 19:33N 47°22' W 122°28'1 0.1
2014-Jul-05 02:33N 47°24' W 122°27'9 2.9
2014-Jul-04 23:23N 47°33' W 122°25'3 4.1
2014-Jul-04 22:40N 47°36' W 122°27'1 5.0
2014-Jul-04 22:33N 47°36' W 122°27'1 4.3
2014-Jul-04 22:25N 47°37' W 122°28'4 4.2
2014-Jul-04 21:33N 47°40' W 122°29'0 3.2
2014-Jul-04 21:30N 47°40' W 122°29'3 3.1
2014-Jul-04 20:33N 47°43' W 122°32'1 0.0
2014-Jul-03 22:26N 47°43' W 122°31'1 5.3
2014-Jul-03 22:12N 47°42' W 122°29'  

Dump ship's entire track history